Time;durP1;ratioP1;P1;durP2;ratioP2;P2;SDS_P1;SDS_P2;PMS_P1;PMS_P2;Temp;Humidity;BMP_temperature;BMP_pressure;BME280_temperature;BME280_humidity;BME280_pressure;Samples;Min_cycle;Max_cycle;Signal;HPM_P1;HPM_P2
2023/05/15 00:00:23;;;;;;;4.87;4.37;;;;;;;10.66;100.00;97755.94;5073093;28;20607;-73
2023/05/15 00:02:50;;;;;;;7.60;5.37;;;;;;;10.67;100.00;97747.03;5073353;28;20230;-73
2023/05/15 00:05:16;;;;;;;5.40;4.60;;;;;;;10.66;100.00;97750.66;5073239;28;20216;-73
2023/05/15 00:07:43;;;;;;;5.70;4.93;;;;;;;10.69;100.00;97745.13;5073067;28;20211;-73
2023/05/15 00:10:10;;;;;;;5.20;4.70;;;;;;;10.69;100.00;97745.13;5072677;28;20576;-72
2023/05/15 00:12:38;;;;;;;4.60;4.13;;;;;;;10.66;100.00;97733.00;5073001;28;20214;-73
2023/05/15 00:15:05;;;;;;;5.50;4.33;;;;;;;10.67;100.00;97736.47;5073082;28;20234;-73
2023/05/15 00:17:31;;;;;;;5.43;4.73;;;;;;;10.73;100.00;97741.28;5073124;28;20319;-73
2023/05/15 00:19:59;;;;;;;5.23;4.67;;;;;;;10.85;100.00;97745.66;5072539;28;20713;-73
2023/05/15 00:22:25;;;;;;;5.37;4.87;;;;;;;10.90;100.00;97732.94;5072742;28;20206;-72
2023/05/15 00:24:52;;;;;;;5.13;4.63;;;;;;;10.90;100.00;97727.63;5073115;28;20206;-73
2023/05/15 00:27:18;;;;;;;5.80;4.80;;;;;;;10.91;100.00;97729.31;5072936;28;20277;-72
2023/05/15 00:29:46;;;;;;;5.60;4.70;;;;;;;10.87;100.00;97726.06;5072442;28;20231;-72
2023/05/15 00:32:13;;;;;;;5.73;5.07;;;;;;;10.87;100.00;97733.16;5072824;28;20212;-73
2023/05/15 00:34:39;;;;;;;6.70;4.63;;;;;;;10.87;100.00;97735.78;5072559;28;20227;-72
2023/05/15 00:37:07;;;;;;;5.40;4.10;;;;;;;10.91;100.00;97737.25;5072480;28;20220;-73
2023/05/15 00:39:33;;;;;;;6.43;4.77;;;;;;;10.97;100.00;97734.13;5072187;28;20294;-73
2023/05/15 00:42:01;;;;;;;4.77;4.30;;;;;;;11.00;100.00;97737.38;5072489;28;20203;-75
2023/05/15 00:44:28;;;;;;;4.77;4.23;;;;;;;11.04;100.00;97740.63;5072471;28;20218;-73
2023/05/15 00:46:57;;;;;;;4.57;4.17;;;;;;;11.10;100.00;97734.88;5072479;28;20218;-73
2023/05/15 00:49:25;;;;;;;5.40;4.40;;;;;;;11.11;100.00;97723.31;5072007;28;20238;-73
2023/05/15 00:51:53;;;;;;;4.93;4.13;;;;;;;11.13;100.00;97729.34;5072498;28;20263;-73
2023/05/15 00:54:19;;;;;;;4.37;3.73;;;;;;;11.12;100.00;97722.38;5072135;28;20237;-73
2023/05/15 00:56:47;;;;;;;5.03;4.53;;;;;;;11.10;100.00;97719.00;5072330;28;20274;-73
2023/05/15 00:59:14;;;;;;;5.07;4.00;;;;;;;11.09;100.00;97723.47;5071770;28;20226;-72
2023/05/15 01:01:44;;;;;;;4.80;3.47;;;;;;;11.11;100.00;97725.97;5072116;28;20587;-73
2023/05/15 01:04:11;;;;;;;4.50;3.53;;;;;;;11.16;100.00;97722.03;5071976;28;20673;-73
2023/05/15 01:06:38;;;;;;;4.30;3.87;;;;;;;11.18;100.00;97729.84;5071815;28;20217;-73
2023/05/15 01:09:07;;;;;;;4.40;3.90;;;;;;;11.16;100.00;97734.41;5071845;28;20236;-72
2023/05/15 01:11:37;;;;;;;6.43;4.17;;;;;;;11.10;100.00;97735.72;5071809;28;20211;-72
2023/05/15 01:14:05;;;;;;;5.60;4.50;;;;;;;11.14;100.00;97739.78;5071751;28;20230;-72
2023/05/15 01:16:32;;;;;;;5.87;5.20;;;;;;;11.04;100.00;97741.47;5071737;28;20205;-73
2023/05/15 01:18:58;;;;;;;5.10;4.57;;;;;;;10.95;100.00;97736.06;5071662;28;20231;-73
2023/05/15 01:21:53;;;;;;;5.90;5.10;;;;;;;10.95;100.00;97746.63;5071608;28;20216;-72
2023/05/15 01:24:39;;;;;;;6.23;4.77;;;;;;;10.96;100.00;97743.03;5071780;28;20220;-72
2023/05/15 01:27:19;;;;;;;5.23;4.37;;;;;;;10.98;100.00;97744.59;5071573;28;20230;-72
2023/05/15 01:29:56;;;;;;;5.20;4.50;;;;;;;10.99;100.00;97748.06;5071216;28;20224;-72
2023/05/15 01:32:28;;;;;;;5.27;4.27;;;;;;;10.92;100.00;97746.84;5071668;28;20336;-72
2023/05/15 01:35:08;;;;;;;7.40;5.00;;;;;;;10.89;100.00;97741.81;5071505;28;20233;-72
2023/05/15 01:37:41;;;;;;;6.40;4.80;;;;;;;10.80;100.00;97747.78;5072010;28;20204;-72
2023/05/15 01:40:11;;;;;;;5.67;4.73;;;;;;;10.72;100.00;97744.91;5071306;28;20582;-72
2023/05/15 01:42:44;;;;;;;6.73;4.90;;;;;;;10.66;100.00;97746.22;5071367;28;20218;-72
2023/05/15 01:45:12;;;;;;;6.80;5.00;;;;;;;10.64;100.00;97749.94;5071435;28;20200;-72
2023/05/15 01:47:43;;;;;;;6.83;5.37;;;;;;;10.62;100.00;97744.75;5071193;28;20220;-71
2023/05/15 01:50:13;;;;;;;6.37;5.17;;;;;;;10.61;100.00;97744.88;5070923;28;20227;-72
2023/05/15 01:52:43;;;;;;;5.40;4.90;;;;;;;10.59;100.00;97741.50;5071389;28;20222;-72
2023/05/15 01:55:10;;;;;;;5.73;5.10;;;;;;;10.56;100.00;97744.34;5071351;28;20233;-72
2023/05/15 01:57:41;;;;;;;6.07;5.20;;;;;;;10.51;100.00;97747.34;5071221;28;20223;-72
2023/05/15 02:00:10;;;;;;;6.83;5.43;;;;;;;10.49;100.00;97738.72;5070820;28;20234;-72
2023/05/15 02:02:37;;;;;;;5.93;4.90;;;;;;;10.45;100.00;97742.53;5071361;28;20209;-72
2023/05/15 02:05:05;;;;;;;5.63;4.80;;;;;;;10.37;100.00;97738.78;5071266;28;20214;-72
2023/05/15 02:07:33;;;;;;;5.87;4.80;;;;;;;10.29;100.00;97738.50;5071288;28;20244;-72
2023/05/15 02:10:01;;;;;;;5.13;4.50;;;;;;;10.20;100.00;97741.81;5070442;28;20237;-72
2023/05/15 02:12:28;;;;;;;5.73;5.10;;;;;;;10.14;100.00;97736.97;5070979;28;20215;-72
2023/05/15 02:14:58;;;;;;;6.73;5.83;;;;;;;10.09;100.00;97744.44;5070849;28;20254;-71
2023/05/15 02:17:25;;;;;;;7.57;5.70;;;;;;;10.09;100.00;97734.69;5070579;28;20300;-71
2023/05/15 02:19:51;;;;;;;7.50;5.70;;;;;;;10.12;100.00;97741.53;5070651;28;20280;-71
2023/05/15 02:22:18;;;;;;;6.67;5.70;;;;;;;10.13;100.00;97748.50;5071179;28;20220;-71
2023/05/15 02:24:44;;;;;;;7.37;5.47;;;;;;;10.19;100.00;97745.41;5073194;28;20211;-72
2023/05/15 02:27:19;;;;;;;5.93;5.20;;;;;;;10.26;100.00;97749.28;5075471;28;20669;-72
2023/05/15 02:30:01;;;;;;;6.60;5.23;;;;;;;10.31;100.00;97744.50;5076583;28;20225;-72
2023/05/15 02:32:34;;;;;;;6.97;5.33;;;;;;;10.44;100.00;97745.28;5071149;28;20624;-72
2023/05/15 02:35:12;;;;;;;5.90;5.10;;;;;;;10.49;100.00;97743.13;5071021;28;20614;-71
2023/05/15 02:37:41;;;;;;;7.70;5.43;;;;;;;10.58;100.00;97748.56;5070909;28;20245;-72
2023/05/15 02:40:11;;;;;;;6.67;5.20;;;;;;;10.64;100.00;97750.75;5071498;28;20245;-72
2023/05/15 02:42:38;;;;;;;7.47;5.13;;;;;;;10.75;100.00;97744.66;5071299;28;20210;-71
2023/05/15 02:45:07;;;;;;;6.70;5.20;;;;;;;10.76;100.00;97735.78;5071528;28;20210;-71
2023/05/15 02:47:37;;;;;;;5.97;5.10;;;;;;;10.83;100.00;97739.66;5071109;28;20215;-71
2023/05/15 02:50:04;;;;;;;6.23;5.03;;;;;;;10.89;100.00;97736.53;5070844;28;20233;-71
2023/05/15 02:52:31;;;;;;;6.03;5.07;;;;;;;10.94;100.00;97740.50;5073039;28;20700;-72
2023/05/15 02:54:57;;;;;;;6.17;4.90;;;;;;;10.94;100.00;97739.69;5071291;28;20234;-72
2023/05/15 02:57:24;;;;;;;5.63;4.60;;;;;;;10.94;100.00;97734.38;5071232;28;20218;-72
2023/05/15 02:59:50;;;;;;;5.53;4.57;;;;;;;10.95;100.00;97736.88;5070389;28;20224;-72
2023/05/15 03:02:17;;;;;;;4.83;4.33;;;;;;;10.97;100.00;97740.28;5070738;28;20209;-72
2023/05/15 03:04:44;;;;;;;6.00;4.80;;;;;;;11.01;100.00;97743.53;5070502;28;20204;-71
2023/05/15 03:07:13;;;;;;;4.87;4.40;;;;;;;10.98;100.00;97744.59;5070588;28;20211;-71
2023/05/15 03:09:39;;;;;;;6.13;4.63;;;;;;;11.01;100.00;97738.25;5085170;22;20232;-81
2023/05/15 03:12:07;;;;;;;5.40;4.87;;;;;;;11.05;100.00;97731.72;5071467;28;20215;-81
2023/05/15 03:14:33;;;;;;;5.67;4.40;;;;;;;11.08;100.00;97731.50;5070629;28;20240;-81
2023/05/15 03:17:00;;;;;;;6.10;4.57;;;;;;;11.09;100.00;97731.41;5071477;28;20232;-81
2023/05/15 03:19:26;;;;;;;6.07;4.43;;;;;;;11.11;100.00;97728.63;5071467;28;20242;-81
2023/05/15 03:21:54;;;;;;;5.20;4.70;;;;;;;11.12;100.00;97727.69;5072065;28;20245;-81
2023/05/15 03:24:21;;;;;;;5.00;4.50;;;;;;;11.11;100.00;97728.63;5072150;28;20645;-81
2023/05/15 03:26:47;;;;;;;5.30;4.60;;;;;;;11.03;100.00;97731.03;5071874;28;20629;-81
2023/05/15 03:29:14;;;;;;;5.63;4.53;;;;;;;11.10;100.00;97732.22;5072342;28;20223;-81
2023/05/15 03:31:40;;;;;;;6.03;4.63;;;;;;;11.08;100.00;97742.91;5075240;28;20218;-81
2023/05/15 03:34:07;;;;;;;4.60;4.10;;;;;;;11.04;100.00;97736.19;5074908;28;20231;-81
2023/05/15 03:36:33;;;;;;;5.20;4.57;;;;;;;11.02;100.00;97737.28;5075179;28;20207;-81
2023/05/15 03:39:01;;;;;;;8.77;5.27;;;;;;;11.04;100.00;97738.00;5075144;28;20214;-81
2023/05/15 03:41:27;;;;;;;6.33;4.70;;;;;;;10.99;100.00;97737.50;5074873;28;20218;-81
2023/05/15 03:43:54;;;;;;;5.73;4.80;;;;;;;10.99;100.00;97729.56;5074814;28;20693;-81
2023/05/15 03:46:20;;;;;;;7.43;5.20;;;;;;;11.05;100.00;97737.88;5074774;28;20216;-81
2023/05/15 03:48:47;;;;;;;5.70;5.10;;;;;;;11.09;100.00;97743.78;5074358;28;20223;-81
2023/05/15 03:51:13;;;;;;;6.27;4.60;;;;;;;11.09;100.00;97730.53;5073576;28;20253;-81
2023/05/15 03:53:40;;;;;;;5.87;4.70;;;;;;;11.17;100.00;97731.63;5073434;28;20208;-81
2023/05/15 03:56:08;;;;;;;5.23;4.57;;;;;;;11.23;100.00;97725.00;5076312;28;20259;-81
2023/05/15 03:58:34;;;;;;;5.40;4.87;;;;;;;11.27;100.00;97727.31;5075056;28;20574;-81
2023/05/15 04:01:01;;;;;;;5.50;4.90;;;;;;;11.29;100.00;97727.19;5073661;28;20226;-81
2023/05/15 04:03:27;;;;;;;6.10;5.13;;;;;;;11.30;100.00;97726.22;5074173;28;20214;-80
2023/05/15 04:05:54;;;;;;;7.87;4.87;;;;;;;11.39;100.00;97730.78;5074431;28;20204;-81
2023/05/15 04:08:20;;;;;;;6.43;5.17;;;;;;;11.37;100.00;97732.72;5074169;28;20214;-80
2023/05/15 04:10:46;;;;;;;5.23;4.73;;;;;;;11.45;100.00;97727.66;5079832;28;20237;-80
2023/05/15 04:13:14;;;;;;;7.30;5.50;;;;;;;11.45;100.00;97730.31;5080901;28;20681;-80
2023/05/15 04:15:41;;;;;;;6.37;5.57;;;;;;;11.52;100.00;97728.88;5077647;28;20235;-81
2023/05/15 04:18:08;;;;;;;6.30;5.00;;;;;;;11.55;100.00;97729.47;5079004;28;20207;-81
2023/05/15 04:20:34;;;;;;;6.03;5.43;;;;;;;11.65;100.00;97732.25;5079014;28;20314;-81
2023/05/15 04:23:02;;;;;;;8.17;5.87;;;;;;;11.70;100.00;97719.50;5078330;28;20224;-81
2023/05/15 04:25:29;;;;;;;6.23;5.37;;;;;;;11.74;100.00;97723.59;5078704;28;20294;-81
2023/05/15 04:27:56;;;;;;;5.90;4.67;;;;;;;11.75;100.00;97730.56;5078351;28;20210;-80
2023/05/15 04:30:24;;;;;;;6.03;4.90;;;;;;;11.76;100.00;97721.66;5082525;28;20235;-81
2023/05/15 04:32:51;;;;;;;5.93;5.33;;;;;;;11.85;100.00;97723.53;5094481;28;20210;-82
2023/05/15 04:35:18;;;;;;;6.17;5.57;;;;;;;11.92;100.00;97724.75;5097056;28;20428;-85
2023/05/15 04:37:45;;;;;;;7.30;5.87;;;;;;;11.93;100.00;97731.72;5096366;28;20195;-85
2023/05/15 04:40:13;;;;;;;6.63;5.93;;;;;;;12.04;100.00;97723.75;5095556;28;20426;-85
2023/05/15 04:42:40;;;;;;;7.00;5.70;;;;;;;12.06;100.00;97722.69;5096601;28;20429;-86
2023/05/15 04:45:08;;;;;;;6.93;5.83;;;;;;;12.13;100.00;97728.28;5096862;28;20199;-84
2023/05/15 04:47:36;;;;;;;7.37;5.73;;;;;;;12.22;100.00;97727.56;5096119;28;20191;-83
2023/05/15 04:50:02;;;;;;;6.67;5.43;;;;;;;12.32;100.00;97728.47;5094591;28;20286;-83
2023/05/15 04:52:29;;;;;;;7.67;5.63;;;;;;;12.41;100.00;97717.94;5095123;28;20206;-83
2023/05/15 04:54:55;;;;;;;6.70;6.00;;;;;;;12.56;100.00;97721.13;5094709;28;20241;-83
2023/05/15 04:57:22;;;;;;;9.10;6.27;;;;;;;12.61;100.00;97717.16;5096786;28;20206;-83
2023/05/15 04:59:48;;;;;;;7.17;6.37;;;;;;;12.66;100.00;97716.75;5094050;28;20293;-83
2023/05/15 05:02:15;;;;;;;7.40;6.30;;;;;;;12.76;100.00;97720.28;5093309;28;20214;-83
2023/05/15 05:04:44;;;;;;;8.10;6.10;;;;;;;12.86;100.00;97729.16;5093599;28;20238;-84
2023/05/15 05:07:11;;;;;;;8.37;6.33;;;;;;;12.98;100.00;97730.81;5093709;28;20191;-83
2023/05/15 05:09:38;;;;;;;6.07;5.47;;;;;;;13.02;100.00;97724.28;5094358;28;20231;-83
2023/05/15 05:12:06;;;;;;;6.53;5.83;;;;;;;13.09;100.00;97720.94;5095932;28;20279;-83
2023/05/15 05:14:32;;;;;;;7.47;5.83;;;;;;;13.18;100.00;97720.19;5093949;28;20225;-83
2023/05/15 05:16:59;;;;;;;6.87;5.80;;;;;;;13.30;100.00;97728.88;5093767;28;20546;-83
2023/05/15 05:19:26;;;;;;;8.83;6.07;;;;;;;13.34;100.00;97719.69;5093653;28;20225;-84
2023/05/15 05:21:54;;;;;;;6.70;6.00;;;;;;;13.50;100.00;97728.84;5094143;28;20251;-84
2023/05/15 05:24:21;;;;;;;6.77;5.27;;;;;;;13.76;100.00;97730.03;5096041;28;20196;-84
2023/05/15 05:26:48;;;;;;;5.83;5.23;;;;;;;14.15;100.00;97728.31;5094202;28;20217;-83
2023/05/15 05:29:14;;;;;;;7.83;5.67;;;;;;;14.46;95.47;97717.47;5083617;28;20234;-84
2023/05/15 05:31:41;;;;;;;6.03;5.43;;;;;;;14.64;92.46;97714.94;5075921;28;20216;-84
2023/05/15 05:34:08;;;;;;;8.70;5.90;;;;;;;14.83;90.47;97720.25;5078790;28;20212;-84
2023/05/15 05:36:35;;;;;;;5.80;5.20;;;;;;;15.23;89.43;97720.88;5084198;28;20258;-84
2023/05/15 05:39:04;;;;;;;6.73;5.67;;;;;;;15.56;86.32;97712.38;5084792;28;20209;-84
2023/05/15 05:41:31;;;;;;;6.27;5.33;;;;;;;15.95;84.28;97698.69;5083627;28;20233;-85
2023/05/15 05:43:57;;;;;;;6.20;5.60;;;;;;;16.14;82.12;97702.09;5085166;28;20210;-84
2023/05/15 05:46:25;;;;;;;7.80;6.10;;;;;;;16.37;79.35;97686.47;5095793;28;20202;-84
2023/05/15 05:48:51;;;;;;;6.33;5.67;;;;;;;16.65;79.22;97685.44;5095073;28;20261;-84
2023/05/15 05:51:18;;;;;;;5.97;5.47;;;;;;;16.82;77.30;97685.41;5095151;28;20211;-84
2023/05/15 05:53:44;;;;;;;10.13;5.80;;;;;;;16.74;76.09;97680.00;5091411;28;20206;-85
2023/05/15 05:56:12;;;;;;;6.47;5.03;;;;;;;17.01;75.59;97677.19;5091981;28;20219;-85
2023/05/15 05:58:39;;;;;;;6.17;5.20;;;;;;;17.23;73.65;97676.69;5094188;28;20291;-84
2023/05/15 06:01:05;;;;;;;7.20;5.30;;;;;;;17.44;73.27;97679.00;5094621;28;20236;-84
2023/05/15 06:03:32;;;;;;;5.37;4.87;;;;;;;17.82;72.28;97684.69;5095685;28;20191;-84
2023/05/15 06:05:59;;;;;;;6.17;5.53;;;;;;;18.01;70.28;97678.22;5096331;28;20199;-85
2023/05/15 06:08:26;;;;;;;5.43;4.93;;;;;;;18.09;69.39;97676.41;5093178;28;20211;-86
2023/05/15 06:10:52;;;;;;;5.87;4.90;;;;;;;18.28;69.06;97676.09;5093899;28;20272;-85
2023/05/15 06:13:21;;;;;;;7.23;5.23;;;;;;;18.27;67.57;97673.59;5093056;28;20571;-86
2023/05/15 06:15:47;;;;;;;7.27;5.17;;;;;;;18.31;67.05;97678.50;5088833;28;20228;-87
2023/05/15 06:18:14;;;;;;;7.07;6.03;;;;;;;17.97;66.33;97672.34;5085644;28;20207;-86
2023/05/15 06:20:41;;;;;;;8.77;5.30;;;;;;;17.62;68.90;97683.25;5083963;28;20234;-87
2023/05/15 06:23:08;;;;;;;6.10;5.20;;;;;;;17.78;68.80;97683.31;5089901;28;20195;-87
2023/05/15 06:25:34;;;;;;;6.70;5.53;;;;;;;17.93;68.77;97686.22;5091970;28;20207;-86
2023/05/15 06:28:01;;;;;;;5.93;5.03;;;;;;;18.08;68.97;97685.44;5094704;28;20195;-87
2023/05/15 06:30:29;;;;;;;5.07;4.40;;;;;;;18.51;67.91;97684.34;5093175;28;20245;-87
2023/05/15 06:32:55;;;;;;;6.57;5.50;;;;;;;18.11;65.54;97668.22;5091447;28;20356;-87
2023/05/15 06:35:22;;;;;;;6.97;5.17;;;;;;;18.01;66.03;97671.03;5091333;28;20238;-87
2023/05/15 06:37:50;;;;;;;5.63;5.13;;;;;;;17.92;66.38;97672.00;5091367;28;20353;-87
2023/05/15 06:40:17;;;;;;;6.17;4.70;;;;;;;17.72;68.08;97688.47;5090412;28;20287;-88
2023/05/15 06:42:44;;;;;;;4.90;4.40;;;;;;;17.69;67.90;97689.63;5070955;28;20203;-87
2023/05/15 06:45:10;;;;;;;5.77;5.17;;;;;;;17.38;69.00;97693.00;5071130;28;20672;-87
2023/05/15 06:47:38;;;;;;;5.23;4.73;;;;;;;17.02;69.05;97689.53;5070989;28;20208;-87
2023/05/15 06:50:06;;;;;;;5.80;5.20;;;;;;;16.47;72.61;97708.63;5070893;28;20239;-87
2023/05/15 06:52:32;;;;;;;5.47;4.93;;;;;;;16.10;74.21;97716.69;5071162;28;20261;-87
2023/05/15 06:54:59;;;;;;;5.63;5.13;;;;;;;15.81;76.16;97725.00;5071115;28;20202;-87
2023/05/15 06:57:26;;;;;;;6.23;5.63;;;;;;;15.75;77.40;97733.59;5071437;28;20215;-87
2023/05/15 06:59:52;;;;;;;6.00;5.40;;;;;;;15.77;79.38;97729.78;5070454;28;20325;-85
2023/05/15 07:02:19;;;;;;;6.63;6.03;;;;;;;15.85;78.33;97721.06;5069725;28;20430;-85
2023/05/15 07:04:46;;;;;;;5.30;4.80;;;;;;;15.80;79.17;97728.66;5073881;28;20214;-85
2023/05/15 07:07:13;;;;;;;6.63;5.50;;;;;;;15.87;79.65;97735.91;5074675;28;20218;-81
2023/05/15 07:09:40;;;;;;;6.47;5.23;;;;;;;15.88;79.86;97728.78;5074177;28;20243;-82
2023/05/15 07:12:07;;;;;;;6.40;5.70;;;;;;;15.82;78.66;97726.72;5074559;28;20607;-82
2023/05/15 07:14:33;;;;;;;5.53;5.03;;;;;;;15.82;79.09;97732.03;5074332;28;20218;-82
2023/05/15 07:17:00;;;;;;;5.53;4.90;;;;;;;15.83;80.85;97734.53;5074325;28;20231;-82
2023/05/15 07:19:27;;;;;;;6.20;5.27;;;;;;;16.01;80.01;97737.25;5074385;28;20241;-82
2023/05/15 07:21:54;;;;;;;6.80;5.60;;;;;;;15.96;77.80;97724.38;5074995;28;20254;-82
2023/05/15 07:24:21;;;;;;;5.10;4.60;;;;;;;15.96;78.40;97720.88;5074488;28;20215;-82
2023/05/15 07:26:47;;;;;;;6.07;4.90;;;;;;;16.00;78.03;97724.94;5074161;28;20601;-82
2023/05/15 07:29:14;;;;;;;6.77;5.20;;;;;;;16.08;80.10;97733.81;5073399;28;20223;-82
2023/05/15 07:31:43;;;;;;;14.93;5.67;;;;;;;16.18;77.56;97724.81;5073786;28;20211;-82
2023/05/15 07:34:11;;;;;;;6.03;5.13;;;;;;;16.06;77.47;97725.16;5074230;28;20487;-82
2023/05/15 07:36:37;;;;;;;5.77;5.17;;;;;;;16.04;77.74;97727.94;5073876;28;20226;-79
2023/05/15 07:39:05;;;;;;;5.23;4.73;;;;;;;15.94;78.06;97721.00;5073828;28;20206;-78
2023/05/15 07:41:32;;;;;;;5.37;4.40;;;;;;;16.09;76.39;97715.03;5073617;28;20384;-79
2023/05/15 07:43:59;;;;;;;6.37;4.27;;;;;;;16.14;76.44;97720.75;5073565;28;20265;-79
2023/05/15 07:46:25;;;;;;;4.47;4.07;;;;;;;16.15;76.33;97721.59;5073870;28;20240;-79
2023/05/15 07:48:52;;;;;;;4.93;4.43;;;;;;;16.20;77.44;97727.28;5073569;28;20731;-79
2023/05/15 07:51:18;;;;;;;4.87;4.37;;;;;;;16.36;78.49;97741.66;5073290;28;20221;-79
2023/05/15 07:53:45;;;;;;;4.90;4.30;;;;;;;16.39;75.52;97722.72;5073489;28;20226;-78
2023/05/15 07:56:13;;;;;;;4.73;4.33;;;;;;;16.50;75.17;97719.81;5073732;28;20231;-79
2023/05/15 07:58:39;;;;;;;4.50;4.03;;;;;;;16.54;75.26;97715.00;5073308;28;20559;-79
2023/05/15 08:01:06;;;;;;;4.97;4.13;;;;;;;16.72;75.99;97718.50;5073327;28;20293;-79
2023/05/15 08:03:32;;;;;;;4.43;4.03;;;;;;;16.78;72.68;97704.56;5073576;28;20210;-79
2023/05/15 08:05:59;;;;;;;4.70;4.00;;;;;;;16.96;71.93;97702.69;5073464;28;20214;-79
2023/05/15 08:08:26;;;;;;;3.97;3.57;;;;;;;16.89;70.47;97694.44;5073450;28;20634;-79
2023/05/15 08:10:52;;;;;;;4.83;3.87;;;;;;;16.96;70.70;97700.03;5072851;28;20235;-79
2023/05/15 08:13:20;;;;;;;4.47;4.07;;;;;;;17.07;69.63;97691.75;5073171;28;20208;-79
2023/05/15 08:15:46;;;;;;;4.17;3.60;;;;;;;17.05;71.36;97691.91;5072559;28;20598;-79
2023/05/15 08:18:13;;;;;;;5.43;3.37;;;;;;;17.14;70.29;97685.63;5073335;28;20203;-79
2023/05/15 08:20:39;;;;;;;7.77;4.40;;;;;;;17.24;68.66;97667.66;5073475;28;20234;-79
2023/05/15 08:23:06;;;;;;;4.40;3.80;;;;;;;17.23;69.86;97682.00;5073100;28;20215;-79
2023/05/15 08:25:32;;;;;;;4.23;3.83;;;;;;;17.24;69.51;97675.69;5073084;28;20210;-79
2023/05/15 08:27:59;;;;;;;4.23;3.50;;;;;;;17.47;69.10;97684.84;5073145;28;20216;-79
2023/05/15 08:30:27;;;;;;;4.40;4.00;;;;;;;17.61;68.88;97686.91;5072838;28;20610;-79
2023/05/15 08:32:53;;;;;;;3.50;3.20;;;;;;;17.64;67.50;97667.91;5073008;28;20211;-79
2023/05/15 08:35:20;;;;;;;4.00;3.70;;;;;;;17.76;68.32;97679.13;5072901;28;20215;-79
2023/05/15 08:37:46;;;;;;;4.83;4.03;;;;;;;17.83;67.37;97673.00;5072968;28;20210;-81
2023/05/15 08:40:13;;;;;;;3.93;3.27;;;;;;;17.81;67.92;97674.16;5071057;28;20223;-79
2023/05/15 08:42:47;;;;;;;4.30;3.90;;;;;;;17.75;67.96;97680.13;5071077;28;20226;-80
2023/05/15 08:45:14;;;;;;;3.87;3.50;;;;;;;17.80;68.04;97678.63;5071832;28;20241;-80
2023/05/15 08:47:43;;;;;;;4.47;3.83;;;;;;;17.79;67.65;97674.31;5071763;28;20307;-79
2023/05/15 08:50:13;;;;;;;5.10;3.50;;;;;;;17.91;67.34;97667.66;5071020;28;20233;-79
2023/05/15 08:52:42;;;;;;;3.60;3.30;;;;;;;18.04;64.45;97657.34;5071544;28;20211;-85
2023/05/15 08:55:10;;;;;;;5.50;3.67;;;;;;;17.93;64.40;97649.59;5071645;28;20207;-85
2023/05/15 08:57:37;;;;;;;4.10;3.80;;;;;;;17.94;63.14;97640.63;5071898;28;20319;-84
2023/05/15 09:00:07;;;;;;;4.00;3.60;;;;;;;17.96;62.02;97625.22;5071496;28;20239;-81
2023/05/15 09:02:34;;;;;;;3.53;3.20;;;;;;;18.18;63.48;97648.69;5076553;28;20203;-83
2023/05/15 09:05:02;;;;;;;4.57;4.03;;;;;;;18.36;61.61;97627.97;5091640;28;20207;-84
2023/05/15 09:07:30;;;;;;;4.30;3.90;;;;;;;18.43;61.12;97630.84;5091559;28;20198;-84
2023/05/15 09:09:57;;;;;;;5.20;4.13;;;;;;;18.50;62.86;97640.72;5103067;22;20227;-74
2023/05/15 09:12:25;;;;;;;4.13;3.73;;;;;;;18.38;64.01;97650.06;5070421;28;20585;-74
2023/05/15 09:14:52;;;;;;;4.23;3.63;;;;;;;18.44;62.97;97638.72;5071185;28;20203;-74
2023/05/15 09:17:19;;;;;;;4.13;3.63;;;;;;;18.32;61.76;97628.47;5071082;28;20234;-74
2023/05/15 09:19:45;;;;;;;6.70;3.67;;;;;;;17.92;61.29;97618.53;5070786;28;20350;-74
2023/05/15 09:22:19;;;;;;;4.03;3.63;;;;;;;18.08;62.11;97621.25;5071826;28;20211;-74
2023/05/15 09:24:47;;;;;;;4.00;3.60;;;;;;;18.32;62.24;97617.78;5071961;28;20290;-74
2023/05/15 09:27:13;;;;;;;4.27;3.63;;;;;;;18.44;62.20;97628.00;5073530;28;20257;-85
2023/05/15 09:29:40;;;;;;;6.23;3.80;;;;;;;18.45;60.03;97604.75;5071664;28;20579;-74
2023/05/15 09:32:09;;;;;;;4.50;3.87;;;;;;;18.56;59.41;97601.72;5071728;28;20218;-74
2023/05/15 09:34:38;;;;;;;4.30;3.90;;;;;;;18.43;59.01;97599.56;5071504;28;20214;-74
2023/05/15 09:37:06;;;;;;;4.30;3.90;;;;;;;18.47;60.31;97606.25;5071496;28;20235;-74
2023/05/15 09:39:39;;;;;;;3.90;3.50;;;;;;;18.65;61.09;97617.63;5071207;28;20272;-74
2023/05/15 09:42:07;;;;;;;3.90;3.60;;;;;;;18.72;59.53;97610.59;5071631;28;20207;-74
2023/05/15 09:44:34;;;;;;;4.30;3.67;;;;;;;18.75;58.61;97588.00;5071551;28;20265;-73
2023/05/15 09:47:01;;;;;;;6.37;3.73;;;;;;;18.81;58.87;97601.56;5071452;28;20215;-74
2023/05/15 09:49:28;;;;;;;4.20;3.73;;;;;;;18.93;58.38;97592.16;5071493;28;20212;-74
2023/05/15 09:51:57;;;;;;;4.33;3.93;;;;;;;18.97;58.34;97582.75;5071847;28;20207;-74
2023/05/15 09:54:26;;;;;;;4.60;4.20;;;;;;;19.03;59.56;97608.03;5071509;28;20208;-74
2023/05/15 09:56:54;;;;;;;3.97;3.57;;;;;;;19.00;58.41;97590.47;5071389;28;20258;-74
2023/05/15 09:59:21;;;;;;;4.00;3.53;;;;;;;18.89;57.67;97579.28;5071138;28;20298;-74
2023/05/15 10:01:49;;;;;;;4.17;3.60;;;;;;;18.98;59.13;97599.66;5071206;28;20207;-74
2023/05/15 10:04:16;;;;;;;4.90;4.40;;;;;;;18.87;59.34;97598.19;5071501;28;20625;-74
2023/05/15 10:06:45;;;;;;;4.20;3.80;;;;;;;18.88;60.33;97610.56;5072115;28;20203;-74
2023/05/15 10:09:13;;;;;;;4.27;3.87;;;;;;;18.90;60.61;97608.56;5071215;28;20302;-74
2023/05/15 10:11:42;;;;;;;4.13;3.73;;;;;;;19.01;59.04;97583.28;5071526;28;20237;-74
2023/05/15 10:14:12;;;;;;;4.00;3.60;;;;;;;19.05;57.90;97571.19;5074314;28;20309;-74
2023/05/15 10:16:40;;;;;;;4.53;3.40;;;;;;;19.05;56.29;97553.28;5075801;28;20231;-73
2023/05/15 10:19:08;;;;;;;3.93;3.23;;;;;;;19.07;53.75;97524.47;5071108;28;20208;-74
2023/05/15 10:21:36;;;;;;;4.20;3.80;;;;;;;19.16;54.24;97534.16;5071059;28;20225;-75
2023/05/15 10:24:04;;;;;;;3.80;3.50;;;;;;;19.17;55.01;97541.19;5071222;28;20666;-74
2023/05/15 10:26:37;;;;;;;4.00;3.27;;;;;;;19.25;55.23;97549.22;5071223;28;20204;-74
2023/05/15 10:29:06;;;;;;;3.37;2.93;;;;;;;19.44;54.05;97529.22;5075200;28;20204;-74
2023/05/15 10:31:35;;;;;;;3.43;2.93;;;;;;;19.56;54.49;97528.63;5071163;28;20716;-74
2023/05/15 10:34:02;;;;;;;4.50;3.20;;;;;;;19.65;52.44;97503.47;5070844;28;20272;-76
2023/05/15 10:36:29;;;;;;;3.10;2.80;;;;;;;19.65;51.70;97495.41;5071272;28;20236;-74
2023/05/15 10:38:58;;;;;;;2.70;2.50;;;;;;;19.72;49.94;97461.50;5072907;28;20239;-74
2023/05/15 10:41:25;;;;;;;3.00;2.70;;;;;;;19.71;49.54;97449.13;5074843;28;20227;-74
2023/05/15 10:43:53;;;;;;;3.07;2.77;;;;;;;19.78;48.19;97442.03;5075229;28;20215;-74
2023/05/15 10:46:21;;;;;;;3.67;2.87;;;;;;;19.82;49.92;97466.63;5074980;28;20203;-74
2023/05/15 10:48:50;;;;;;;3.40;3.10;;;;;;;19.90;49.97;97470.09;5074974;28;20519;-74
2023/05/15 10:51:18;;;;;;;3.37;3.07;;;;;;;19.79;51.20;97478.56;5074444;28;20235;-75
2023/05/15 10:53:45;;;;;;;3.43;3.13;;;;;;;20.16;51.87;97486.66;5074565;28;20207;-76
2023/05/15 10:56:13;;;;;;;3.53;3.23;;;;;;;20.09;53.44;97504.50;5074795;28;20215;-74
2023/05/15 10:58:46;;;;;;;4.37;3.47;;;;;;;19.89;52.42;97489.88;5074607;28;20253;-74
2023/05/15 11:01:25;;;;;;;3.90;3.43;;;;;;;19.47;51.33;97477.94;5074341;28;20231;-74
2023/05/15 11:04:04;;;;;;;3.80;3.20;;;;;;;19.18;51.77;97467.84;5074556;28;20322;-74
2023/05/15 11:06:31;;;;;;;4.00;3.20;;;;;;;19.05;51.96;97477.44;5074459;28;20223;-75
2023/05/15 11:09:35;;;;;;;3.30;3.00;;;;;;;18.82;52.83;97482.72;5074477;28;20214;-74
2023/05/15 11:12:02;;;;;;;3.50;3.20;;;;;;;18.96;53.12;97482.00;5074389;28;20219;-74
2023/05/15 11:14:30;;;;;;;3.00;2.70;;;;;;;19.16;52.55;97472.56;5072648;28;20199;-74
2023/05/15 11:16:59;;;;;;;2.83;2.63;;;;;;;19.49;51.91;97473.22;5070576;28;20234;-74
2023/05/15 11:19:33;;;;;;;3.43;3.13;;;;;;;19.89;52.08;97476.47;5071168;28;20214;-74
2023/05/15 11:22:01;;;;;;;2.90;2.70;;;;;;;20.31;50.94;97463.38;5072121;28;20214;-75
2023/05/15 11:24:29;;;;;;;2.90;2.70;;;;;;;20.35;47.53;97416.38;5074056;28;20215;-75
2023/05/15 11:27:00;;;;;;;3.07;2.83;;;;;;;20.44;48.00;97426.03;5074045;28;20200;-74
2023/05/15 11:29:26;;;;;;;3.23;2.93;;;;;;;20.65;48.65;97434.16;5073857;28;20203;-75
2023/05/15 11:31:53;;;;;;;3.40;3.10;;;;;;;20.90;48.01;97432.88;5074116;28;20211;-73